createdAt,value
2017-04-24T00:00:15.674Z,930.37
2017-04-24T00:00:35.638Z,930.3
2017-04-24T00:00:55.616Z,930.27
2017-04-24T00:01:15.026Z,930.35
2017-04-24T00:01:35.001Z,930.33
2017-04-24T00:01:54.418Z,930.38
2017-04-24T00:02:14.666Z,930.33
2017-04-24T00:02:34.626Z,930.34
2017-04-24T00:02:54.622Z,930.35
2017-04-24T00:03:14.041Z,930.35
2017-04-24T00:03:33.983Z,930.33
2017-04-24T00:03:53.958Z,930.36
2017-04-24T00:04:13.351Z,930.39
2017-04-24T00:04:32.783Z,930.39
2017-04-24T00:04:52.741Z,930.38
2017-04-24T00:05:12.736Z,930.37
2017-04-24T00:05:32.678Z,930.35
2017-04-24T00:05:52.676Z,930.35
2017-04-24T00:06:12.658Z,930.36
2017-04-24T00:06:32.619Z,930.35
2017-04-24T00:06:52.595Z,930.35
2017-04-24T00:07:11.981Z,930.37
2017-04-24T00:07:31.972Z,930.37
2017-04-24T00:07:51.976Z,930.31
2017-04-24T00:08:11.956Z,930.33
2017-04-24T00:08:31.994Z,930.26
2017-04-24T00:08:52.000Z,930.34
2017-04-24T00:09:12.013Z,930.31
2017-04-24T00:09:30.844Z,930.37
2017-04-24T00:09:50.278Z,930.33
2017-04-24T00:10:10.249Z,930.36
2017-04-24T00:10:29.648Z,930.35
2017-04-24T00:10:49.658Z,930.29
2017-04-24T00:11:09.118Z,930.32
2017-04-24T00:11:28.518Z,930.28
2017-04-24T00:11:48.474Z,930.32
2017-04-24T00:12:08.972Z,930.27
2017-04-24T00:12:28.959Z,930.31
2017-04-24T00:12:48.926Z,930.31
2017-04-24T00:13:08.941Z,930.3
2017-04-24T00:13:28.913Z,930.36
2017-04-24T00:13:48.904Z,930.29
2017-04-24T00:14:08.347Z,930.4
2017-04-24T00:14:27.163Z,930.35
2017-04-24T00:14:47.134Z,930.41
2017-04-24T00:15:07.119Z,930.44
2017-04-24T00:15:27.080Z,930.42
2017-04-24T00:15:47.037Z,930.43
2017-04-24T00:16:06.476Z,930.44
2017-04-24T00:16:26.479Z,930.44
2017-04-24T00:16:46.434Z,930.38
2017-04-24T00:17:06.395Z,930.43
2017-04-24T00:17:26.426Z,930.47
2017-04-24T00:17:46.409Z,930.45
2017-04-24T00:18:06.370Z,930.41
2017-04-24T00:18:25.801Z,930.44
2017-04-24T00:18:45.784Z,930.42
2017-04-24T00:19:05.762Z,930.4
2017-04-24T00:19:25.763Z,930.42
2017-04-24T00:19:45.177Z,930.36
2017-04-24T00:20:04.673Z,930.4
2017-04-24T00:20:24.695Z,930.39
2017-04-24T00:20:44.657Z,930.42
2017-04-24T00:21:04.639Z,930.38
2017-04-24T00:21:24.077Z,930.37
2017-04-24T00:21:44.045Z,930.38
2017-04-24T00:22:03.495Z,930.38
2017-04-24T00:22:23.479Z,930.39
2017-04-24T00:22:43.470Z,930.38
2017-04-24T00:23:03.428Z,930.27
2017-04-24T00:23:23.419Z,930.37
2017-04-24T00:23:42.846Z,930.35
2017-04-24T00:24:02.837Z,930.37
2017-04-24T00:24:22.266Z,930.39
2017-04-24T00:24:42.315Z,930.38
2017-04-24T00:25:02.321Z,930.36
2017-04-24T00:25:22.083Z,930.39
2017-04-24T00:25:42.106Z,930.42
2017-04-24T00:26:02.101Z,930.41
2017-04-24T00:26:22.082Z,930.39
2017-04-24T00:26:42.057Z,930.38
2017-04-24T00:27:02.010Z,930.41
2017-04-24T00:27:21.987Z,930.41
2017-04-24T00:27:41.986Z,930.39
2017-04-24T00:28:01.953Z,930.39
2017-04-24T00:28:21.953Z,930.33
2017-04-24T00:28:41.940Z,930.38
2017-04-24T00:29:01.930Z,930.38
2017-04-24T00:29:21.936Z,930.37
2017-04-24T00:29:41.951Z,930.44
2017-04-24T00:30:01.950Z,930.43
2017-04-24T00:30:21.384Z,930.34
2017-04-24T00:30:41.374Z,930.38
2017-04-24T00:31:01.351Z,930.41
2017-04-24T00:31:21.316Z,930.37
2017-04-24T00:31:41.307Z,930.33
2017-04-24T00:32:01.297Z,930.34
2017-04-24T00:32:20.172Z,930.35
2017-04-24T00:32:40.172Z,930.35
2017-04-24T00:33:00.127Z,930.37
2017-04-24T00:33:18.997Z,930.37
2017-04-24T00:33:38.435Z,930.41
2017-04-24T00:33:58.462Z,930.37
2017-04-24T00:34:18.500Z,930.41
2017-04-24T00:34:38.667Z,930.36
2017-04-24T00:35:32.113Z,930.43
2017-04-24T00:35:52.359Z,930.41
2017-04-24T00:36:11.936Z,930.37
2017-04-24T00:36:32.303Z,930.38
2017-04-24T00:36:52.534Z,930.45
2017-04-24T00:37:12.033Z,930.38
2017-04-24T00:37:32.047Z,930.44
2017-04-24T00:37:52.057Z,930.42
2017-04-24T00:38:12.031Z,930.49
2017-04-24T00:38:30.939Z,930.43
2017-04-24T00:38:50.970Z,930.43
2017-04-24T00:39:11.028Z,930.49
2017-04-24T00:39:31.089Z,930.46
2017-04-24T00:39:51.153Z,930.48
2017-04-24T00:40:11.147Z,930.38
2017-04-24T00:40:30.550Z,930.37
2017-04-24T00:40:50.580Z,930.43
2017-04-24T00:41:10.671Z,930.45
2017-04-24T00:41:30.659Z,930.51
2017-04-24T00:41:50.794Z,930.51
2017-04-24T00:42:10.247Z,930.43
2017-04-24T00:42:30.230Z,930.52
2017-04-24T00:42:50.243Z,930.45
2017-04-24T00:43:10.261Z,930.48
2017-04-24T00:43:30.306Z,930.49
2017-04-24T00:43:50.289Z,930.51
2017-04-24T00:44:10.301Z,930.53
2017-04-24T00:44:30.285Z,930.49
2017-04-24T00:44:50.229Z,930.54
2017-04-24T00:45:09.661Z,930.53
2017-04-24T00:45:29.613Z,930.53
2017-04-24T00:45:49.043Z,930.54
2017-04-24T00:46:09.038Z,930.51
2017-04-24T00:46:29.021Z,930.52
2017-04-24T00:46:48.992Z,930.52
2017-04-24T00:47:09.019Z,930.43
2017-04-24T00:47:28.463Z,930.47
2017-04-24T00:47:47.891Z,930.48
2017-04-24T00:48:07.906Z,930.48
2017-04-24T00:48:27.394Z,930.46
2017-04-24T00:48:47.356Z,930.52
2017-04-24T00:49:07.361Z,930.51
2017-04-24T00:49:27.322Z,930.48
2017-04-24T00:49:46.735Z,930.48
2017-04-24T00:50:06.708Z,930.49
2017-04-24T00:50:25.575Z,930.52
2017-04-24T00:50:45.021Z,930.47
2017-04-24T00:51:04.995Z,930.47
2017-04-24T00:51:24.418Z,930.48
2017-04-24T00:51:44.408Z,930.47
2017-04-24T00:52:04.369Z,930.41
2017-04-24T00:52:23.809Z,930.47
2017-04-24T00:52:43.837Z,930.47
2017-04-24T00:53:03.834Z,930.51
2017-04-24T00:53:22.694Z,930.44
2017-04-24T00:53:42.701Z,930.44
2017-04-24T00:54:02.708Z,930.51
2017-04-24T00:54:22.148Z,930.45
2017-04-24T00:54:41.576Z,930.54
2017-04-24T00:55:01.532Z,930.53
2017-04-24T00:55:21.488Z,930.48
2017-04-24T00:55:41.473Z,930.48
2017-04-24T00:56:01.407Z,930.52
2017-04-24T00:56:20.797Z,930.49
2017-04-24T00:56:40.170Z,930.52
2017-04-24T00:57:00.170Z,930.56
2017-04-24T00:57:19.609Z,930.55
2017-04-24T00:57:39.632Z,930.51
2017-04-24T00:57:59.034Z,930.45
2017-04-24T00:58:19.003Z,930.5
2017-04-24T00:58:38.995Z,930.51
2017-04-24T00:58:59.025Z,930.52
2017-04-24T00:59:19.009Z,930.47
2017-04-24T00:59:38.993Z,930.49
2017-04-24T00:59:58.963Z,930.48
2017-04-24T01:00:17.805Z,930.5
2017-04-24T01:00:37.751Z,930.52
2017-04-24T01:00:56.631Z,930.49
2017-04-24T01:01:16.641Z,930.49
2017-04-24T01:01:36.640Z,930.46
2017-04-24T01:01:56.054Z,930.51
2017-04-24T01:02:16.058Z,930.47
2017-04-24T01:02:36.018Z,930.41
2017-04-24T01:02:55.437Z,930.45
2017-04-24T01:03:15.395Z,930.47
2017-04-24T01:03:35.374Z,930.49
2017-04-24T01:03:54.799Z,930.51
2017-04-24T01:04:14.790Z,930.53
2017-04-24T01:04:34.773Z,930.52
2017-04-24T01:04:54.720Z,930.49
2017-04-24T01:05:14.158Z,930.53
2017-04-24T01:05:34.155Z,930.53
2017-04-24T01:05:54.127Z,930.53
2017-04-24T01:06:13.551Z,930.52
2017-04-24T01:06:33.522Z,930.49
2017-04-24T01:06:53.533Z,930.52
2017-04-24T01:07:13.519Z,930.51
2017-04-24T01:07:32.939Z,930.54
2017-04-24T01:07:52.898Z,930.56
2017-04-24T01:08:12.895Z,930.55
2017-04-24T01:08:32.881Z,930.51
2017-04-24T01:08:52.830Z,930.49
2017-04-24T01:09:12.817Z,930.53
2017-04-24T01:09:32.807Z,930.54
2017-04-24T01:09:52.262Z,930.54
2017-04-24T01:10:12.246Z,930.53
2017-04-24T01:10:31.668Z,930.53
2017-04-24T01:10:51.623Z,930.54
2017-04-24T01:11:11.602Z,930.54
2017-04-24T01:11:31.591Z,930.54
2017-04-24T01:11:51.562Z,930.56
2017-04-24T01:12:10.965Z,930.53
2017-04-24T01:12:30.938Z,930.53
2017-04-24T01:12:50.391Z,930.5
2017-04-24T01:13:10.384Z,930.54
2017-04-24T01:13:30.364Z,930.55
2017-04-24T01:13:50.352Z,930.53
2017-04-24T01:14:10.313Z,930.54
2017-04-24T01:14:30.299Z,930.55
2017-04-24T01:14:50.305Z,930.54
2017-04-24T01:15:09.679Z,930.54
2017-04-24T01:15:29.681Z,930.52
2017-04-24T01:15:49.640Z,930.52
2017-04-24T01:16:09.585Z,930.55
2017-04-24T01:16:29.566Z,930.53
2017-04-24T01:16:49.534Z,930.53
2017-04-24T01:17:08.956Z,930.55
2017-04-24T01:17:28.968Z,930.56
2017-04-24T01:17:49.030Z,930.57
2017-04-24T01:18:09.032Z,930.54
2017-04-24T01:18:28.474Z,930.54
2017-04-24T01:18:48.509Z,930.52
2017-04-24T01:19:08.604Z,930.51
2017-04-24T01:19:28.578Z,930.53
2017-04-24T01:19:48.562Z,930.51
2017-04-24T01:20:07.974Z,930.49
2017-04-24T01:20:27.977Z,930.51
2017-04-24T01:20:47.923Z,930.46
2017-04-24T01:21:07.913Z,930.51
2017-04-24T01:21:27.898Z,930.51
2017-04-24T01:21:47.888Z,930.48
2017-04-24T01:22:07.873Z,930.5
2017-04-24T01:22:27.860Z,930.49
2017-04-24T01:22:47.852Z,930.43
2017-04-24T01:23:08.039Z,930.47
2017-04-24T01:23:28.039Z,930.49
2017-04-24T01:23:47.521Z,930.53
2017-04-24T01:24:07.574Z,930.51
2017-04-24T01:24:27.037Z,930.5
2017-04-24T01:24:46.988Z,930.51
2017-04-24T01:25:06.960Z,930.49
2017-04-24T01:25:26.383Z,930.51
2017-04-24T01:25:45.801Z,930.48
2017-04-24T01:26:05.765Z,930.48
2017-04-24T01:26:25.766Z,930.47
2017-04-24T01:26:45.717Z,930.45
2017-04-24T01:27:05.713Z,930.48
2017-04-24T01:27:25.126Z,930.47
2017-04-24T01:27:45.071Z,930.46
2017-04-24T01:28:05.016Z,930.53
2017-04-24T01:28:25.005Z,930.47
2017-04-24T01:28:44.965Z,930.45
2017-04-24T01:29:04.383Z,930.46
2017-04-24T01:29:24.365Z,930.48
2017-04-24T01:29:44.337Z,930.48
2017-04-24T01:30:03.772Z,930.47
2017-04-24T01:30:22.629Z,930.49
2017-04-24T01:30:42.688Z,930.51
2017-04-24T01:31:02.637Z,930.47
2017-04-24T01:31:22.616Z,930.44
2017-04-24T01:31:43.038Z,930.51
2017-04-24T01:32:03.020Z,930.49
2017-04-24T01:32:23.003Z,930.47
2017-04-24T01:32:42.965Z,930.51
2017-04-24T01:33:02.910Z,930.52
2017-04-24T01:33:22.936Z,930.52
2017-04-24T01:33:42.932Z,930.55
2017-04-24T01:34:02.950Z,930.52
2017-04-24T01:34:22.928Z,930.5
2017-04-24T01:34:42.905Z,930.5
2017-04-24T01:35:02.884Z,930.49
2017-04-24T01:35:22.852Z,930.52
2017-04-24T01:35:42.851Z,930.47
2017-04-24T01:36:02.821Z,930.51
2017-04-24T01:36:22.236Z,930.52
2017-04-24T01:36:42.180Z,930.51
2017-04-24T01:37:02.173Z,930.48
2017-04-24T01:37:22.140Z,930.51
2017-04-24T01:37:42.097Z,930.54
2017-04-24T01:38:02.052Z,930.55
2017-04-24T01:38:22.020Z,930.55
2017-04-24T01:38:41.429Z,930.57
2017-04-24T01:39:01.405Z,930.56
2017-04-24T01:39:20.278Z,930.58
2017-04-24T01:39:39.715Z,930.55
2017-04-24T01:39:59.714Z,930.59
2017-04-24T01:40:19.700Z,930.56
2017-04-24T01:40:39.137Z,930.55
2017-04-24T01:40:59.112Z,930.53
2017-04-24T01:41:19.125Z,930.56
2017-04-24T01:41:39.106Z,930.56
2017-04-24T01:41:58.514Z,930.59
2017-04-24T01:42:18.504Z,930.56
2017-04-24T01:42:38.450Z,930.59
2017-04-24T01:42:58.442Z,930.6
2017-04-24T01:43:17.881Z,930.61
2017-04-24T01:43:37.883Z,930.59
2017-04-24T01:43:57.858Z,930.54
2017-04-24T01:44:17.833Z,930.53
2017-04-24T01:44:37.820Z,930.51
2017-04-24T01:44:57.845Z,930.51
2017-04-24T01:45:17.272Z,930.5
2017-04-24T01:45:37.241Z,930.54
2017-04-24T01:45:57.221Z,930.51
2017-04-24T01:46:17.190Z,930.55
2017-04-24T01:46:37.142Z,930.54
2017-04-24T01:46:57.134Z,930.54
2017-04-24T01:47:17.134Z,930.55
2017-04-24T01:47:37.117Z,930.52
2017-04-24T01:47:57.123Z,930.53
2017-04-24T01:48:16.550Z,930.54
2017-04-24T01:48:36.548Z,930.51
2017-04-24T01:48:56.565Z,930.52
2017-04-24T01:49:16.576Z,930.53
2017-04-24T01:49:36.564Z,930.57
2017-04-24T01:49:56.578Z,930.55
2017-04-24T01:50:16.549Z,930.55
2017-04-24T01:50:36.563Z,930.55
2017-04-24T01:50:56.000Z,930.57
2017-04-24T01:51:15.947Z,930.55
2017-04-24T01:51:35.389Z,930.55
2017-04-24T01:51:55.364Z,930.57
2017-04-24T01:52:15.350Z,930.6
2017-04-24T01:52:35.313Z,930.56
2017-04-24T01:52:55.314Z,930.58
2017-04-24T01:53:15.294Z,930.58
2017-04-24T01:53:34.727Z,930.53
2017-04-24T01:53:53.620Z,930.52
2017-04-24T01:54:13.628Z,930.53
2017-04-24T01:54:33.070Z,930.53
2017-04-24T01:54:52.475Z,930.55
2017-04-24T01:55:12.483Z,930.52
2017-04-24T01:55:31.911Z,930.51
2017-04-24T01:55:52.429Z,930.52
2017-04-24T01:56:12.411Z,930.48
2017-04-24T01:56:32.417Z,930.53
2017-04-24T01:56:52.716Z,930.54
2017-04-24T01:57:12.729Z,930.56
2017-04-24T01:57:32.125Z,930.57
2017-04-24T01:57:52.063Z,930.54
2017-04-24T01:58:12.080Z,930.56
2017-04-24T01:58:32.081Z,930.56
2017-04-24T01:58:52.109Z,930.56
2017-04-24T01:59:12.072Z,930.55
2017-04-24T01:59:32.053Z,930.57
2017-04-24T01:59:52.039Z,930.54
2017-04-24T02:00:12.032Z,930.56
2017-04-24T02:00:31.436Z,930.55
2017-04-24T02:00:50.865Z,930.6
2017-04-24T02:01:10.893Z,930.55
2017-04-24T02:01:30.853Z,930.57
2017-04-24T02:01:50.836Z,930.57
2017-04-24T02:02:10.763Z,930.54
2017-04-24T02:02:30.748Z,930.51
2017-04-24T02:02:50.719Z,930.51
2017-04-24T02:03:10.708Z,930.58
2017-04-24T02:03:30.129Z,930.57
2017-04-24T02:03:50.123Z,930.58
2017-04-24T02:04:10.093Z,930.52
2017-04-24T02:04:30.060Z,930.53
2017-04-24T02:04:49.480Z,930.56
2017-04-24T02:05:08.878Z,930.55
2017-04-24T02:05:28.865Z,930.54
2017-04-24T02:05:48.862Z,930.52
2017-04-24T02:06:08.863Z,930.55
2017-04-24T02:06:28.827Z,930.55
2017-04-24T02:06:48.774Z,930.51
2017-04-24T02:07:08.816Z,930.54
2017-04-24T02:07:28.826Z,930.51
2017-04-24T02:07:48.805Z,930.54
2017-04-24T02:08:08.798Z,930.53
2017-04-24T02:08:28.736Z,930.55
2017-04-24T02:08:48.187Z,930.52
2017-04-24T02:09:08.195Z,930.54
2017-04-24T02:09:27.611Z,930.55
2017-04-24T02:09:47.590Z,930.54
2017-04-24T02:10:07.547Z,930.55
2017-04-24T02:10:27.509Z,930.53
2017-04-24T02:10:47.491Z,930.5
2017-04-24T02:11:07.475Z,930.53
2017-04-24T02:11:27.467Z,930.55
2017-04-24T02:11:46.902Z,930.47
2017-04-24T02:12:06.857Z,930.54
2017-04-24T02:12:26.287Z,930.51
2017-04-24T02:12:45.855Z,930.56
2017-04-24T02:13:06.011Z,930.46
2017-04-24T02:13:26.031Z,930.49
2017-04-24T02:13:46.060Z,930.5
2017-04-24T02:14:05.511Z,930.5
2017-04-24T02:14:24.992Z,930.51
2017-04-24T02:14:45.056Z,930.51
2017-04-24T02:15:05.087Z,930.44
2017-04-24T02:15:24.567Z,930.46
2017-04-24T02:15:44.565Z,930.5
2017-04-24T02:16:04.530Z,930.5
2017-04-24T02:16:24.584Z,930.49
2017-04-24T02:16:44.553Z,930.51
2017-04-24T02:17:04.510Z,930.48
2017-04-24T02:17:24.485Z,930.49
2017-04-24T02:17:43.896Z,930.52
2017-04-24T02:18:03.864Z,930.52
2017-04-24T02:18:23.956Z,930.49
2017-04-24T02:18:43.982Z,930.53
2017-04-24T02:19:03.927Z,930.42
2017-04-24T02:19:23.946Z,930.5
2017-04-24T02:19:43.356Z,930.51
2017-04-24T02:20:03.344Z,930.48
2017-04-24T02:20:23.320Z,930.47
2017-04-24T02:20:43.303Z,930.48
2017-04-24T02:21:02.728Z,930.5
2017-04-24T02:21:22.100Z,930.51
2017-04-24T02:21:42.083Z,930.5
2017-04-24T02:22:02.088Z,930.45
2017-04-24T02:22:21.723Z,930.46
2017-04-24T02:22:41.728Z,930.41
2017-04-24T02:23:01.745Z,930.43
2017-04-24T02:23:21.743Z,930.43
2017-04-24T02:23:41.136Z,930.48
2017-04-24T02:24:01.098Z,930.5
2017-04-24T02:24:21.058Z,930.45
2017-04-24T02:24:41.012Z,930.44
2017-04-24T02:25:00.980Z,930.44
2017-04-24T02:25:20.954Z,930.43
2017-04-24T02:25:41.017Z,930.43
2017-04-24T02:26:01.020Z,930.42
2017-04-24T02:26:21.081Z,930.42
2017-04-24T02:26:40.551Z,930.42
2017-04-24T02:27:00.077Z,930.41
2017-04-24T02:27:19.641Z,930.4
2017-04-24T02:27:39.694Z,930.41
2017-04-24T02:27:59.812Z,930.4
2017-04-24T02:28:19.849Z,930.42
2017-04-24T02:28:39.595Z,930.38
2017-04-24T02:28:59.663Z,930.45
2017-04-24T02:29:19.655Z,930.45
2017-04-24T02:29:39.140Z,930.42
2017-04-24T02:29:59.739Z,930.42
2017-04-24T02:30:18.583Z,930.43
2017-04-24T02:30:38.601Z,930.44
2017-04-24T02:30:58.639Z,930.42
2017-04-24T02:31:18.637Z,930.38
2017-04-24T02:31:38.617Z,930.37
2017-04-24T02:31:58.579Z,930.43
2017-04-24T02:32:18.577Z,930.4
2017-04-24T02:32:38.568Z,930.38
2017-04-24T02:32:58.547Z,930.41
2017-04-24T02:33:17.966Z,930.43
2017-04-24T02:33:37.958Z,930.4
2017-04-24T02:33:57.372Z,930.38
2017-04-24T02:34:16.818Z,930.45
2017-04-24T02:34:36.836Z,930.41
2017-04-24T02:34:56.842Z,930.45
2017-04-24T02:35:16.821Z,930.43
2017-04-24T02:35:36.776Z,930.41
2017-04-24T02:35:56.802Z,930.39
2017-04-24T02:36:16.780Z,930.37
2017-04-24T02:36:36.725Z,930.35
2017-04-24T02:36:56.749Z,930.37
2017-04-24T02:37:16.737Z,930.39
2017-04-24T02:37:36.806Z,930.37
2017-04-24T02:37:56.786Z,930.32
2017-04-24T02:38:16.776Z,930.33
2017-04-24T02:38:36.721Z,930.36
2017-04-24T02:38:56.700Z,930.27
2017-04-24T02:39:16.717Z,930.38
2017-04-24T02:39:36.688Z,930.26
2017-04-24T02:39:56.240Z,930.31
2017-04-24T02:40:16.274Z,930.32
2017-04-24T02:40:35.777Z,930.32
2017-04-24T02:40:55.217Z,930.35
2017-04-24T02:41:15.268Z,930.31
2017-04-24T02:41:35.231Z,930.39
2017-04-24T02:41:55.270Z,930.33
2017-04-24T02:42:15.297Z,930.38
2017-04-24T02:42:35.350Z,930.35
2017-04-24T02:42:54.732Z,930.34
2017-04-24T02:43:14.728Z,930.33
2017-04-24T02:43:34.706Z,930.34
2017-04-24T02:43:54.124Z,930.37
2017-04-24T02:44:13.561Z,930.33
2017-04-24T02:44:32.983Z,930.31
2017-04-24T02:44:52.989Z,930.33
2017-04-24T02:45:12.992Z,930.32
2017-04-24T02:45:32.943Z,930.31
2017-04-24T02:45:52.938Z,930.35
2017-04-24T02:46:12.978Z,930.35
2017-04-24T02:46:33.004Z,930.37
2017-04-24T02:46:53.085Z,930.4
2017-04-24T02:47:13.088Z,930.39
2017-04-24T02:47:33.087Z,930.36
2017-04-24T02:47:53.093Z,930.38
2017-04-24T02:48:13.096Z,930.36
2017-04-24T02:48:33.265Z,930.34
2017-04-24T02:48:53.301Z,930.35
2017-04-24T02:49:13.334Z,930.36
2017-04-24T02:49:33.358Z,930.36
2017-04-24T02:49:53.359Z,930.34
2017-04-24T02:50:12.917Z,930.29
2017-04-24T02:50:33.010Z,930.32
2017-04-24T02:50:52.996Z,930.31
2017-04-24T02:51:12.947Z,930.35
2017-04-24T02:51:33.179Z,930.28
2017-04-24T02:51:53.156Z,930.33
2017-04-24T02:52:13.077Z,930.34
2017-04-24T02:52:33.062Z,930.32
2017-04-24T02:52:53.014Z,930.35
2017-04-24T02:53:13.025Z,930.31
2017-04-24T02:53:32.550Z,930.32
2017-04-24T02:53:51.955Z,930.3
2017-04-24T02:54:11.979Z,930.31
2017-04-24T02:54:31.999Z,930.3
2017-04-24T02:54:52.089Z,930.29
2017-04-24T02:55:12.104Z,930.33
2017-04-24T02:55:32.084Z,930.29
2017-04-24T02:55:52.075Z,930.29
2017-04-24T02:56:11.505Z,930.31
2017-04-24T02:56:31.491Z,930.32
2017-04-24T02:56:51.455Z,930.32
2017-04-24T02:57:10.854Z,930.28
2017-04-24T02:57:30.859Z,930.26
2017-04-24T02:57:50.911Z,930.33
2017-04-24T02:58:10.307Z,930.29
2017-04-24T02:58:30.338Z,930.34
2017-04-24T02:58:50.324Z,930.35
2017-04-24T02:59:10.344Z,930.28
2017-04-24T02:59:30.437Z,930.27
2017-04-24T02:59:50.418Z,930.29
2017-04-24T03:00:10.435Z,930.3
2017-04-24T03:00:30.386Z,930.27
2017-04-24T03:00:50.380Z,930.27
2017-04-24T03:01:10.351Z,930.27
2017-04-24T03:01:30.364Z,930.24
2017-04-24T03:01:49.757Z,930.25
2017-04-24T03:02:09.742Z,930.26
2017-04-24T03:02:29.731Z,930.29
2017-04-24T03:02:49.725Z,930.27
2017-04-24T03:03:09.689Z,930.24
2017-04-24T03:03:29.116Z,930.27
2017-04-24T03:03:48.623Z,930.3
2017-04-24T03:04:08.619Z,930.27
2017-04-24T03:04:28.742Z,930.3
2017-04-24T03:04:48.749Z,930.28
2017-04-24T03:05:08.748Z,930.29
2017-04-24T03:05:28.696Z,930.31
2017-04-24T03:05:48.656Z,930.28
2017-04-24T03:06:08.651Z,930.32
2017-04-24T03:06:28.882Z,930.3
2017-04-24T03:06:47.751Z,930.27
2017-04-24T03:07:07.724Z,930.31
2017-04-24T03:07:26.595Z,930.29
2017-04-24T03:07:46.000Z,930.31
2017-04-24T03:08:06.001Z,930.29
2017-04-24T03:08:24.863Z,930.31
2017-04-24T03:08:44.309Z,930.34
2017-04-24T03:09:04.799Z,930.32
2017-04-24T03:09:24.844Z,930.29
2017-04-24T03:09:44.849Z,930.28
2017-04-24T03:10:04.855Z,930.31
2017-04-24T03:10:24.264Z,930.26
2017-04-24T03:10:44.208Z,930.35
2017-04-24T03:11:04.195Z,930.33
2017-04-24T03:11:24.203Z,930.31
2017-04-24T03:11:44.191Z,930.32
2017-04-24T03:12:04.180Z,930.29
2017-04-24T03:12:23.027Z,930.33
2017-04-24T03:12:42.985Z,930.28
2017-04-24T03:13:02.979Z,930.28
2017-04-24T03:13:22.958Z,930.24
2017-04-24T03:13:42.392Z,930.24
2017-04-24T03:14:02.372Z,930.26
2017-04-24T03:14:21.801Z,930.27
2017-04-24T03:14:40.682Z,930.22
2017-04-24T03:15:00.655Z,930.27
2017-04-24T03:15:20.661Z,930.24
2017-04-24T03:15:40.663Z,930.21
2017-04-24T03:16:34.448Z,930.22
2017-04-24T03:16:54.436Z,930.22
2017-04-24T03:17:14.418Z,930.2
2017-04-24T03:17:34.372Z,930.22
2017-04-24T03:17:54.359Z,930.22
2017-04-24T03:18:14.343Z,930.23
2017-04-24T03:18:34.302Z,930.21
2017-04-24T03:18:53.717Z,930.18
2017-04-24T03:19:13.711Z,930.15
2017-04-24T03:19:33.685Z,930.19
2017-04-24T03:19:53.679Z,930.23
2017-04-24T03:20:12.507Z,930.22
2017-04-24T03:20:32.465Z,930.22
2017-04-24T03:20:52.440Z,930.18
2017-04-24T03:21:12.457Z,930.21
2017-04-24T03:21:32.432Z,930.1
2017-04-24T03:21:51.853Z,930.16
2017-04-24T03:22:11.865Z,930.17
2017-04-24T03:22:31.838Z,930.17
2017-04-24T03:22:51.289Z,930.13
2017-04-24T03:23:11.246Z,930.14
2017-04-24T03:23:31.205Z,930.14
2017-04-24T03:23:51.220Z,930.05
2017-04-24T03:24:11.235Z,930.16
2017-04-24T03:24:31.263Z,930.13
2017-04-24T03:24:51.237Z,930.13
2017-04-24T03:25:11.252Z,930.07
2017-04-24T03:25:30.680Z,930.09
2017-04-24T03:25:50.105Z,930.07
2017-04-24T03:26:10.117Z,930.13
2017-04-24T03:26:30.435Z,930.18
2017-04-24T03:26:50.408Z,930.08
2017-04-24T03:27:10.377Z,930.12
2017-04-24T03:27:30.372Z,930.09
2017-04-24T03:27:50.369Z,930.11
2017-04-24T03:28:10.331Z,930.07
2017-04-24T03:28:30.290Z,930.14
2017-04-24T03:28:49.699Z,930.14
2017-04-24T03:29:09.687Z,930.13
2017-04-24T03:29:29.083Z,930.14
2017-04-24T03:29:49.082Z,930.15
2017-04-24T03:30:09.054Z,930.15
2017-04-24T03:30:28.487Z,930.18
2017-04-24T03:30:48.466Z,930.16
2017-04-24T03:31:08.420Z,930.14
2017-04-24T03:31:28.395Z,930.14
2017-04-24T03:31:48.362Z,930.13
2017-04-24T03:32:08.371Z,930.11
2017-04-24T03:32:27.274Z,930.18
2017-04-24T03:32:47.253Z,930.2
2017-04-24T03:33:07.209Z,930.19
2017-04-24T03:33:27.201Z,930.19
2017-04-24T03:33:47.165Z,930.18
2017-04-24T03:34:07.164Z,930.19
2017-04-24T03:34:27.161Z,930.19
2017-04-24T03:34:47.184Z,930.22
2017-04-24T03:35:07.197Z,930.14
2017-04-24T03:35:27.174Z,930.1
2017-04-24T03:35:47.129Z,930.09
2017-04-24T03:36:07.120Z,930.15
2017-04-24T03:36:26.536Z,930.15
2017-04-24T03:36:46.527Z,930.11
2017-04-24T03:37:06.542Z,930.12
2017-04-24T03:37:25.931Z,930.11
2017-04-24T03:37:45.913Z,930.13
2017-04-24T03:38:05.884Z,930.12
2017-04-24T03:38:29.344Z,930.12
2017-04-24T03:38:49.346Z,930.14
2017-04-24T03:39:09.322Z,930.14
2017-04-24T03:39:28.741Z,930.1
2017-04-24T03:39:48.694Z,930.07
2017-04-24T03:40:08.697Z,930.11
2017-04-24T03:40:28.653Z,930.1
2017-04-24T03:40:48.647Z,930.03
2017-04-24T03:41:08.649Z,930.04
2017-04-24T03:41:28.319Z,930.03
2017-04-24T03:41:48.274Z,930.02
2017-04-24T03:42:08.207Z,929.96
2017-04-24T03:42:27.637Z,929.96
2017-04-24T03:42:47.081Z,929.92
2017-04-24T03:43:06.491Z,929.96
2017-04-24T03:43:25.913Z,929.97
2017-04-24T03:43:45.879Z,929.96
2017-04-24T03:44:05.870Z,929.96
2017-04-24T03:44:25.887Z,929.96
2017-04-24T03:44:45.895Z,929.91
2017-04-24T03:45:05.302Z,929.9
2017-04-24T03:45:24.704Z,929.9
2017-04-24T03:45:44.691Z,929.93
2017-04-24T03:46:04.670Z,929.9
2017-04-24T03:46:24.078Z,929.86
2017-04-24T03:46:44.064Z,929.86
2017-04-24T03:47:03.500Z,929.91
2017-04-24T03:47:23.490Z,929.86
2017-04-24T03:47:43.503Z,929.9
2017-04-24T03:48:03.497Z,929.82
2017-04-24T03:48:23.500Z,929.92
2017-04-24T03:48:43.477Z,929.82
2017-04-24T03:49:03.483Z,929.87
2017-04-24T03:49:23.493Z,929.87
2017-04-24T03:49:43.429Z,929.88
2017-04-24T03:50:03.426Z,929.84
2017-04-24T03:50:22.295Z,929.86
2017-04-24T03:50:42.241Z,929.82
2017-04-24T03:51:02.173Z,929.83
2017-04-24T03:51:22.118Z,929.87
2017-04-24T03:51:42.083Z,929.83
2017-04-24T03:52:02.025Z,929.82
2017-04-24T03:52:21.488Z,929.81
2017-04-24T03:52:41.467Z,929.81
2017-04-24T03:53:01.443Z,929.8
2017-04-24T03:53:21.414Z,929.83
2017-04-24T03:53:41.381Z,929.76
2017-04-24T03:54:00.792Z,929.77
2017-04-24T03:54:20.776Z,929.79
2017-04-24T03:54:40.176Z,929.79
2017-04-24T03:55:00.106Z,929.82
2017-04-24T03:55:20.108Z,929.85
2017-04-24T03:55:40.104Z,929.8
2017-04-24T03:56:00.063Z,929.78
2017-04-24T03:56:20.051Z,929.78
2017-04-24T03:56:40.028Z,929.76
2017-04-24T03:57:00.018Z,929.82
2017-04-24T03:57:18.895Z,929.84
2017-04-24T03:57:38.926Z,929.83
2017-04-24T03:57:58.344Z,929.83
2017-04-24T03:58:17.766Z,929.81
2017-04-24T03:58:37.775Z,929.82
2017-04-24T03:58:57.816Z,929.82
2017-04-24T03:59:17.810Z,929.77
2017-04-24T03:59:37.775Z,929.76
2017-04-24T03:59:57.773Z,929.81
2017-04-24T04:00:17.714Z,929.79
2017-04-24T04:00:37.700Z,929.83
2017-04-24T04:00:57.650Z,929.84
2017-04-24T04:01:17.063Z,929.86
2017-04-24T04:01:36.483Z,929.85
2017-04-24T04:01:56.482Z,929.84
2017-04-24T04:02:16.462Z,929.83
2017-04-24T04:02:36.460Z,929.84
2017-04-24T04:02:56.441Z,929.81
2017-04-24T04:03:16.432Z,929.8
2017-04-24T04:03:36.407Z,929.83
2017-04-24T04:03:56.378Z,929.84
2017-04-24T04:04:16.349Z,929.81
2017-04-24T04:04:36.334Z,929.81
2017-04-24T04:04:56.294Z,929.81
2017-04-24T04:05:15.698Z,929.77
2017-04-24T04:05:35.674Z,929.84
2017-04-24T04:05:55.660Z,929.83
2017-04-24T04:06:15.653Z,929.72
2017-04-24T04:06:35.671Z,929.79
2017-04-24T04:06:55.651Z,929.81
2017-04-24T04:07:15.651Z,929.84
2017-04-24T04:07:35.614Z,929.85
2017-04-24T04:07:55.561Z,929.86
2017-04-24T04:08:15.544Z,929.87
2017-04-24T04:08:35.507Z,929.87
2017-04-24T04:08:55.473Z,929.84
2017-04-24T04:09:15.446Z,929.88
2017-04-24T04:09:35.441Z,929.86